sensor_id;sensor_type;location;lat;lon;timestamp;P1;durP1;ratioP1;P2;durP2;ratioP2
14272;SDS011;7220;49.450;11.052;2022-12-18T00:03:18;68.27;;;41.57;;
14272;SDS011;7220;49.450;11.052;2022-12-18T00:07:18;71.60;;;41.80;;
14272;SDS011;7220;49.450;11.052;2022-12-18T00:11:20;66.10;;;38.00;;
14272;SDS011;7220;49.450;11.052;2022-12-18T00:15:21;68.97;;;40.67;;
14272;SDS011;7220;49.450;11.052;2022-12-18T00:19:21;71.00;;;36.17;;
14272;SDS011;7220;49.450;11.052;2022-12-18T00:23:22;72.07;;;39.43;;
14272;SDS011;7220;49.450;11.052;2022-12-18T00:27:22;71.30;;;39.80;;
14272;SDS011;7220;49.450;11.052;2022-12-18T00:31:23;64.57;;;36.87;;
14272;SDS011;7220;49.450;11.052;2022-12-18T00:35:24;67.87;;;36.53;;
14272;SDS011;7220;49.450;11.052;2022-12-18T00:39:25;66.93;;;39.53;;
14272;SDS011;7220;49.450;11.052;2022-12-18T00:43:25;71.50;;;37.90;;
14272;SDS011;7220;49.450;11.052;2022-12-18T00:47:25;65.40;;;37.77;;
14272;SDS011;7220;49.450;11.052;2022-12-18T00:51:25;63.27;;;38.33;;
14272;SDS011;7220;49.450;11.052;2022-12-18T00:55:26;74.67;;;37.90;;
14272;SDS011;7220;49.450;11.052;2022-12-18T00:59:26;63.73;;;37.53;;
14272;SDS011;7220;49.450;11.052;2022-12-18T01:03:27;63.53;;;35.93;;
14272;SDS011;7220;49.450;11.052;2022-12-18T01:07:27;62.80;;;35.07;;
14272;SDS011;7220;49.450;11.052;2022-12-18T01:11:27;59.23;;;35.23;;
14272;SDS011;7220;49.450;11.052;2022-12-18T01:15:28;63.87;;;33.83;;
14272;SDS011;7220;49.450;11.052;2022-12-18T01:19:28;53.77;;;30.80;;
14272;SDS011;7220;49.450;11.052;2022-12-18T01:23:28;50.93;;;30.67;;
14272;SDS011;7220;49.450;11.052;2022-12-18T01:27:29;46.33;;;27.07;;
14272;SDS011;7220;49.450;11.052;2022-12-18T01:31:30;44.17;;;23.80;;
14272;SDS011;7220;49.450;11.052;2022-12-18T01:35:32;42.97;;;24.63;;
14272;SDS011;7220;49.450;11.052;2022-12-18T01:39:32;43.03;;;25.50;;
14272;SDS011;7220;49.450;11.052;2022-12-18T01:48:04;51.07;;;25.80;;
14272;SDS011;7220;49.450;11.052;2022-12-18T01:52:06;46.27;;;23.83;;
14272;SDS011;7220;49.450;11.052;2022-12-18T01:56:07;47.27;;;24.47;;
14272;SDS011;7220;49.450;11.052;2022-12-18T02:00:19;48.73;;;24.17;;
14272;SDS011;7220;49.450;11.052;2022-12-18T02:04:24;44.83;;;23.33;;
14272;SDS011;7220;49.450;11.052;2022-12-18T02:12:42;49.03;;;23.23;;
14272;SDS011;7220;49.450;11.052;2022-12-18T02:16:52;48.23;;;22.47;;
14272;SDS011;7220;49.450;11.052;2022-12-18T02:21:08;54.00;;;23.57;;
14272;SDS011;7220;49.450;11.052;2022-12-18T02:29:41;45.80;;;23.33;;
14272;SDS011;7220;49.450;11.052;2022-12-18T02:33:48;44.17;;;21.07;;
14272;SDS011;7220;49.450;11.052;2022-12-18T02:37:54;57.00;;;24.30;;
14272;SDS011;7220;49.450;11.052;2022-12-18T02:41:55;44.40;;;22.23;;
14272;SDS011;7220;49.450;11.052;2022-12-18T02:45:58;44.33;;;21.77;;
14272;SDS011;7220;49.450;11.052;2022-12-18T02:54:25;46.20;;;21.90;;
14272;SDS011;7220;49.450;11.052;2022-12-18T03:03:27;49.80;;;23.17;;
14272;SDS011;7220;49.450;11.052;2022-12-18T03:07:40;47.53;;;22.53;;
14272;SDS011;7220;49.450;11.052;2022-12-18T03:12:12;51.73;;;22.33;;
14272;SDS011;7220;49.450;11.052;2022-12-18T03:16:24;47.10;;;22.20;;
14272;SDS011;7220;49.450;11.052;2022-12-18T03:20:29;46.30;;;22.67;;
14272;SDS011;7220;49.450;11.052;2022-12-18T03:24:34;51.90;;;23.70;;
14272;SDS011;7220;49.450;11.052;2022-12-18T03:28:40;49.47;;;22.23;;
14272;SDS011;7220;49.450;11.052;2022-12-18T03:32:51;51.70;;;22.47;;
14272;SDS011;7220;49.450;11.052;2022-12-18T03:36:56;45.33;;;21.60;;
14272;SDS011;7220;49.450;11.052;2022-12-18T03:45:32;37.70;;;22.07;;
14272;SDS011;7220;49.450;11.052;2022-12-18T03:49:41;35.93;;;20.63;;
14272;SDS011;7220;49.450;11.052;2022-12-18T03:53:55;41.83;;;21.37;;
14272;SDS011;7220;49.450;11.052;2022-12-18T03:58:01;40.77;;;22.40;;
14272;SDS011;7220;49.450;11.052;2022-12-18T04:02:05;36.93;;;20.00;;
14272;SDS011;7220;49.450;11.052;2022-12-18T04:06:07;42.30;;;20.73;;
14272;SDS011;7220;49.450;11.052;2022-12-18T04:10:11;38.23;;;19.17;;
14272;SDS011;7220;49.450;11.052;2022-12-18T04:14:13;35.27;;;18.77;;
14272;SDS011;7220;49.450;11.052;2022-12-18T04:18:14;39.33;;;19.80;;
14272;SDS011;7220;49.450;11.052;2022-12-18T04:22:14;40.07;;;20.93;;
14272;SDS011;7220;49.450;11.052;2022-12-18T04:26:15;34.93;;;19.53;;
14272;SDS011;7220;49.450;11.052;2022-12-18T04:30:15;39.27;;;20.17;;
14272;SDS011;7220;49.450;11.052;2022-12-18T04:34:16;38.93;;;19.07;;
14272;SDS011;7220;49.450;11.052;2022-12-18T04:38:16;36.60;;;19.27;;
14272;SDS011;7220;49.450;11.052;2022-12-18T04:42:16;38.27;;;20.27;;
14272;SDS011;7220;49.450;11.052;2022-12-18T04:46:16;33.07;;;17.13;;
14272;SDS011;7220;49.450;11.052;2022-12-18T04:50:17;30.87;;;17.30;;
14272;SDS011;7220;49.450;11.052;2022-12-18T04:54:17;33.60;;;18.13;;
14272;SDS011;7220;49.450;11.052;2022-12-18T04:58:18;34.23;;;18.30;;
14272;SDS011;7220;49.450;11.052;2022-12-18T05:02:18;32.53;;;17.37;;
14272;SDS011;7220;49.450;11.052;2022-12-18T05:06:18;31.70;;;17.27;;
14272;SDS011;7220;49.450;11.052;2022-12-18T05:10:18;34.37;;;17.63;;
14272;SDS011;7220;49.450;11.052;2022-12-18T05:14:19;36.17;;;18.37;;
14272;SDS011;7220;49.450;11.052;2022-12-18T05:18:20;32.43;;;17.60;;
14272;SDS011;7220;49.450;11.052;2022-12-18T05:22:20;39.80;;;17.67;;
14272;SDS011;7220;49.450;11.052;2022-12-18T05:26:21;35.33;;;16.97;;
14272;SDS011;7220;49.450;11.052;2022-12-18T05:30:21;34.73;;;18.13;;
14272;SDS011;7220;49.450;11.052;2022-12-18T05:34:22;28.13;;;16.60;;
14272;SDS011;7220;49.450;11.052;2022-12-18T05:38:23;34.30;;;17.63;;
14272;SDS011;7220;49.450;11.052;2022-12-18T05:42:24;40.13;;;18.70;;
14272;SDS011;7220;49.450;11.052;2022-12-18T05:46:24;34.57;;;18.13;;
14272;SDS011;7220;49.450;11.052;2022-12-18T05:50:25;30.67;;;17.27;;
14272;SDS011;7220;49.450;11.052;2022-12-18T05:54:28;30.73;;;17.97;;
14272;SDS011;7220;49.450;11.052;2022-12-18T05:58:29;33.63;;;17.50;;
14272;SDS011;7220;49.450;11.052;2022-12-18T06:02:30;32.23;;;17.00;;
14272;SDS011;7220;49.450;11.052;2022-12-18T06:06:30;30.57;;;16.67;;
14272;SDS011;7220;49.450;11.052;2022-12-18T06:10:31;34.10;;;17.10;;
14272;SDS011;7220;49.450;11.052;2022-12-18T06:14:31;34.63;;;17.10;;
14272;SDS011;7220;49.450;11.052;2022-12-18T06:18:32;33.83;;;16.60;;
14272;SDS011;7220;49.450;11.052;2022-12-18T06:22:32;35.20;;;17.50;;
14272;SDS011;7220;49.450;11.052;2022-12-18T06:26:33;25.67;;;16.07;;
14272;SDS011;7220;49.450;11.052;2022-12-18T06:30:33;32.10;;;15.10;;
14272;SDS011;7220;49.450;11.052;2022-12-18T06:34:33;32.70;;;17.40;;
14272;SDS011;7220;49.450;11.052;2022-12-18T06:38:37;32.13;;;17.97;;
14272;SDS011;7220;49.450;11.052;2022-12-18T06:42:39;29.83;;;16.60;;
14272;SDS011;7220;49.450;11.052;2022-12-18T06:46:39;34.30;;;16.57;;
14272;SDS011;7220;49.450;11.052;2022-12-18T06:50:41;27.80;;;15.90;;
14272;SDS011;7220;49.450;11.052;2022-12-18T06:54:42;30.77;;;16.63;;
14272;SDS011;7220;49.450;11.052;2022-12-18T06:58:42;27.50;;;16.47;;
14272;SDS011;7220;49.450;11.052;2022-12-18T07:02:43;29.97;;;16.27;;
14272;SDS011;7220;49.450;11.052;2022-12-18T07:06:43;33.20;;;16.77;;
14272;SDS011;7220;49.450;11.052;2022-12-18T07:10:44;28.90;;;16.97;;
14272;SDS011;7220;49.450;11.052;2022-12-18T07:14:44;34.40;;;16.80;;
14272;SDS011;7220;49.450;11.052;2022-12-18T07:18:44;31.20;;;16.20;;
14272;SDS011;7220;49.450;11.052;2022-12-18T07:22:45;28.93;;;16.07;;
14272;SDS011;7220;49.450;11.052;2022-12-18T07:26:46;31.87;;;16.70;;
14272;SDS011;7220;49.450;11.052;2022-12-18T07:30:46;36.33;;;17.60;;
14272;SDS011;7220;49.450;11.052;2022-12-18T07:34:47;34.50;;;16.27;;
14272;SDS011;7220;49.450;11.052;2022-12-18T07:38:47;29.50;;;16.63;;
14272;SDS011;7220;49.450;11.052;2022-12-18T07:42:49;30.80;;;16.00;;
14272;SDS011;7220;49.450;11.052;2022-12-18T07:46:49;37.73;;;17.07;;
14272;SDS011;7220;49.450;11.052;2022-12-18T07:50:49;33.13;;;17.10;;
14272;SDS011;7220;49.450;11.052;2022-12-18T07:54:49;34.63;;;18.57;;
14272;SDS011;7220;49.450;11.052;2022-12-18T07:58:50;33.40;;;17.23;;
14272;SDS011;7220;49.450;11.052;2022-12-18T08:02:50;33.83;;;17.27;;
14272;SDS011;7220;49.450;11.052;2022-12-18T08:06:50;37.70;;;18.67;;
14272;SDS011;7220;49.450;11.052;2022-12-18T08:10:51;38.53;;;18.50;;
14272;SDS011;7220;49.450;11.052;2022-12-18T08:14:51;37.67;;;18.30;;
14272;SDS011;7220;49.450;11.052;2022-12-18T08:18:52;38.67;;;19.90;;
14272;SDS011;7220;49.450;11.052;2022-12-18T08:22:53;38.20;;;19.17;;
14272;SDS011;7220;49.450;11.052;2022-12-18T08:26:54;34.07;;;18.77;;
14272;SDS011;7220;49.450;11.052;2022-12-18T08:30:54;35.93;;;18.43;;
14272;SDS011;7220;49.450;11.052;2022-12-18T08:34:54;37.57;;;18.27;;
14272;SDS011;7220;49.450;11.052;2022-12-18T08:38:55;36.53;;;19.40;;
14272;SDS011;7220;49.450;11.052;2022-12-18T08:42:56;34.73;;;18.37;;
14272;SDS011;7220;49.450;11.052;2022-12-18T08:47:15;32.37;;;18.00;;
14272;SDS011;7220;49.450;11.052;2022-12-18T08:51:16;31.07;;;18.40;;
14272;SDS011;7220;49.450;11.052;2022-12-18T08:55:17;32.13;;;17.40;;
14272;SDS011;7220;49.450;11.052;2022-12-18T08:59:17;31.43;;;17.07;;
14272;SDS011;7220;49.450;11.052;2022-12-18T09:03:19;31.87;;;16.50;;
14272;SDS011;7220;49.450;11.052;2022-12-18T09:07:22;31.63;;;16.93;;
14272;SDS011;7220;49.450;11.052;2022-12-18T09:11:23;29.83;;;17.03;;
14272;SDS011;7220;49.450;11.052;2022-12-18T09:15:25;29.63;;;15.73;;
14272;SDS011;7220;49.450;11.052;2022-12-18T09:19:26;28.23;;;15.70;;
14272;SDS011;7220;49.450;11.052;2022-12-18T09:23:26;29.73;;;15.80;;
14272;SDS011;7220;49.450;11.052;2022-12-18T09:27:26;25.70;;;15.30;;
14272;SDS011;7220;49.450;11.052;2022-12-18T09:31:26;31.30;;;15.83;;
14272;SDS011;7220;49.450;11.052;2022-12-18T09:35:27;28.53;;;16.60;;
14272;SDS011;7220;49.450;11.052;2022-12-18T09:39:27;29.73;;;17.07;;
14272;SDS011;7220;49.450;11.052;2022-12-18T09:43:30;29.20;;;16.57;;
14272;SDS011;7220;49.450;11.052;2022-12-18T09:47:37;27.00;;;16.17;;
14272;SDS011;7220;49.450;11.052;2022-12-18T09:51:42;25.97;;;16.47;;
14272;SDS011;7220;49.450;11.052;2022-12-18T09:55:47;24.23;;;14.90;;
14272;SDS011;7220;49.450;11.052;2022-12-18T09:59:50;25.57;;;15.57;;
14272;SDS011;7220;49.450;11.052;2022-12-18T10:03:54;26.73;;;15.67;;
14272;SDS011;7220;49.450;11.052;2022-12-18T10:16:17;26.23;;;15.90;;
14272;SDS011;7220;49.450;11.052;2022-12-18T10:20:30;24.73;;;14.17;;
14272;SDS011;7220;49.450;11.052;2022-12-18T10:29:13;27.77;;;14.73;;
14272;SDS011;7220;49.450;11.052;2022-12-18T10:33:16;27.93;;;16.43;;
14272;SDS011;7220;49.450;11.052;2022-12-18T10:37:19;29.03;;;16.27;;
14272;SDS011;7220;49.450;11.052;2022-12-18T10:41:23;28.98;;;15.13;;
14272;SDS011;7220;49.450;11.052;2022-12-18T10:45:26;25.40;;;14.77;;
14272;SDS011;7220;49.450;11.052;2022-12-18T10:49:27;25.15;;;15.20;;
14272;SDS011;7220;49.450;11.052;2022-12-18T10:53:31;28.17;;;17.23;;
14272;SDS011;7220;49.450;11.052;2022-12-18T10:57:35;25.33;;;14.98;;
14272;SDS011;7220;49.450;11.052;2022-12-18T11:01:56;26.67;;;15.80;;
14272;SDS011;7220;49.450;11.052;2022-12-18T11:06:01;25.67;;;14.97;;
14272;SDS011;7220;49.450;11.052;2022-12-18T11:10:04;23.17;;;14.57;;
14272;SDS011;7220;49.450;11.052;2022-12-18T11:14:06;27.40;;;15.03;;
14272;SDS011;7220;49.450;11.052;2022-12-18T11:22:39;26.45;;;14.85;;
14272;SDS011;7220;49.450;11.052;2022-12-18T11:26:40;26.90;;;14.97;;
14272;SDS011;7220;49.450;11.052;2022-12-18T11:30:43;25.97;;;14.43;;
14272;SDS011;7220;49.450;11.052;2022-12-18T11:34:46;25.63;;;14.33;;
14272;SDS011;7220;49.450;11.052;2022-12-18T11:38:52;28.27;;;15.80;;
14272;SDS011;7220;49.450;11.052;2022-12-18T11:43:01;24.87;;;14.07;;
14272;SDS011;7220;49.450;11.052;2022-12-18T11:47:21;24.20;;;13.93;;
14272;SDS011;7220;49.450;11.052;2022-12-18T11:51:41;26.43;;;15.37;;
14272;SDS011;7220;49.450;11.052;2022-12-18T12:00:12;25.10;;;14.60;;
14272;SDS011;7220;49.450;11.052;2022-12-18T12:17:34;23.45;;;13.77;;
14272;SDS011;7220;49.450;11.052;2022-12-18T12:21:39;24.20;;;14.27;;
14272;SDS011;7220;49.450;11.052;2022-12-18T12:25:49;21.90;;;13.75;;
14272;SDS011;7220;49.450;11.052;2022-12-18T12:30:08;26.02;;;14.57;;
14272;SDS011;7220;49.450;11.052;2022-12-18T12:34:18;22.45;;;14.73;;
14272;SDS011;7220;49.450;11.052;2022-12-18T12:38:28;24.15;;;13.85;;
14272;SDS011;7220;49.450;11.052;2022-12-18T12:42:35;27.08;;;15.20;;
14272;SDS011;7220;49.450;11.052;2022-12-18T12:47:14;24.40;;;14.48;;
14272;SDS011;7220;49.450;11.052;2022-12-18T12:51:25;24.00;;;14.30;;
14272;SDS011;7220;49.450;11.052;2022-12-18T12:55:28;23.85;;;14.13;;
14272;SDS011;7220;49.450;11.052;2022-12-18T12:59:32;26.77;;;15.32;;
14272;SDS011;7220;49.450;11.052;2022-12-18T13:08:07;25.45;;;15.57;;
14272;SDS011;7220;49.450;11.052;2022-12-18T13:12:10;23.50;;;13.95;;
14272;SDS011;7220;49.450;11.052;2022-12-18T13:16:30;20.20;;;13.82;;
14272;SDS011;7220;49.450;11.052;2022-12-18T13:24:37;26.58;;;15.15;;
14272;SDS011;7220;49.450;11.052;2022-12-18T13:32:46;22.92;;;14.18;;
14272;SDS011;7220;49.450;11.052;2022-12-18T13:36:47;23.58;;;14.88;;
14272;SDS011;7220;49.450;11.052;2022-12-18T13:44:48;21.42;;;13.85;;
14272;SDS011;7220;49.450;11.052;2022-12-18T13:48:53;25.55;;;15.13;;
14272;SDS011;7220;49.450;11.052;2022-12-18T13:52:59;21.65;;;13.63;;
14272;SDS011;7220;49.450;11.052;2022-12-18T13:57:00;21.50;;;14.07;;
14272;SDS011;7220;49.450;11.052;2022-12-18T14:01:01;28.65;;;15.02;;
14272;SDS011;7220;49.450;11.052;2022-12-18T14:05:01;26.63;;;15.70;;
14272;SDS011;7220;49.450;11.052;2022-12-18T14:09:02;26.05;;;15.25;;
14272;SDS011;7220;49.450;11.052;2022-12-18T14:13:04;27.60;;;15.40;;
14272;SDS011;7220;49.450;11.052;2022-12-18T14:17:09;22.80;;;14.77;;
14272;SDS011;7220;49.450;11.052;2022-12-18T14:21:17;24.60;;;14.87;;
14272;SDS011;7220;49.450;11.052;2022-12-18T14:25:23;23.13;;;14.47;;
14272;SDS011;7220;49.450;11.052;2022-12-18T14:29:29;28.27;;;16.37;;
14272;SDS011;7220;49.450;11.052;2022-12-18T14:33:30;24.97;;;14.07;;
14272;SDS011;7220;49.450;11.052;2022-12-18T14:37:31;24.20;;;14.37;;
14272;SDS011;7220;49.450;11.052;2022-12-18T14:41:31;23.40;;;13.97;;
14272;SDS011;7220;49.450;11.052;2022-12-18T14:49:37;24.20;;;14.53;;
14272;SDS011;7220;49.450;11.052;2022-12-18T14:53:42;29.60;;;16.13;;
14272;SDS011;7220;49.450;11.052;2022-12-18T14:57:45;25.60;;;16.37;;
14272;SDS011;7220;49.450;11.052;2022-12-18T15:06:35;30.23;;;17.80;;
14272;SDS011;7220;49.450;11.052;2022-12-18T15:10:45;25.33;;;15.63;;
14272;SDS011;7220;49.450;11.052;2022-12-18T15:14:47;27.60;;;15.10;;
14272;SDS011;7220;49.450;11.052;2022-12-18T15:18:47;25.90;;;15.93;;
14272;SDS011;7220;49.450;11.052;2022-12-18T15:22:48;27.10;;;15.13;;
14272;SDS011;7220;49.450;11.052;2022-12-18T15:26:48;26.53;;;15.47;;
14272;SDS011;7220;49.450;11.052;2022-12-18T15:31:03;27.63;;;15.00;;
14272;SDS011;7220;49.450;11.052;2022-12-18T15:35:25;25.10;;;16.00;;
14272;SDS011;7220;49.450;11.052;2022-12-18T15:39:25;25.67;;;16.30;;
14272;SDS011;7220;49.450;11.052;2022-12-18T15:43:27;25.80;;;14.23;;
14272;SDS011;7220;49.450;11.052;2022-12-18T15:47:33;28.20;;;14.83;;
14272;SDS011;7220;49.450;11.052;2022-12-18T15:51:37;27.13;;;15.60;;
14272;SDS011;7220;49.450;11.052;2022-12-18T15:55:38;24.10;;;14.73;;
14272;SDS011;7220;49.450;11.052;2022-12-18T15:59:57;27.70;;;14.90;;
14272;SDS011;7220;49.450;11.052;2022-12-18T16:03:58;24.07;;;14.70;;
14272;SDS011;7220;49.450;11.052;2022-12-18T16:07:58;31.20;;;17.37;;
14272;SDS011;7220;49.450;11.052;2022-12-18T16:11:58;27.53;;;16.70;;
14272;SDS011;7220;49.450;11.052;2022-12-18T16:15:58;27.43;;;15.50;;
14272;SDS011;7220;49.450;11.052;2022-12-18T16:19:59;26.63;;;15.60;;
14272;SDS011;7220;49.450;11.052;2022-12-18T16:23:59;28.47;;;16.83;;
14272;SDS011;7220;49.450;11.052;2022-12-18T16:27:59;28.70;;;16.13;;
14272;SDS011;7220;49.450;11.052;2022-12-18T16:32:00;30.60;;;17.00;;
14272;SDS011;7220;49.450;11.052;2022-12-18T16:36:00;29.10;;;17.20;;
14272;SDS011;7220;49.450;11.052;2022-12-18T16:40:01;31.17;;;18.23;;
14272;SDS011;7220;49.450;11.052;2022-12-18T16:44:01;24.67;;;16.40;;
14272;SDS011;7220;49.450;11.052;2022-12-18T16:48:02;31.53;;;18.03;;
14272;SDS011;7220;49.450;11.052;2022-12-18T16:52:03;33.73;;;18.00;;
14272;SDS011;7220;49.450;11.052;2022-12-18T16:56:05;31.60;;;17.97;;
14272;SDS011;7220;49.450;11.052;2022-12-18T17:00:06;31.03;;;16.63;;
14272;SDS011;7220;49.450;11.052;2022-12-18T17:04:07;29.27;;;18.03;;
14272;SDS011;7220;49.450;11.052;2022-12-18T17:08:08;31.07;;;16.83;;
14272;SDS011;7220;49.450;11.052;2022-12-18T17:12:08;28.50;;;17.00;;
14272;SDS011;7220;49.450;11.052;2022-12-18T17:16:09;31.27;;;18.90;;
14272;SDS011;7220;49.450;11.052;2022-12-18T17:20:09;31.90;;;18.30;;
14272;SDS011;7220;49.450;11.052;2022-12-18T17:24:09;30.17;;;19.00;;
14272;SDS011;7220;49.450;11.052;2022-12-18T17:28:10;33.90;;;17.57;;
14272;SDS011;7220;49.450;11.052;2022-12-18T17:32:10;31.37;;;17.23;;
14272;SDS011;7220;49.450;11.052;2022-12-18T17:36:11;32.73;;;18.00;;
14272;SDS011;7220;49.450;11.052;2022-12-18T17:40:12;31.70;;;17.40;;
14272;SDS011;7220;49.450;11.052;2022-12-18T17:44:12;29.20;;;17.03;;
14272;SDS011;7220;49.450;11.052;2022-12-18T17:48:12;31.67;;;17.63;;
14272;SDS011;7220;49.450;11.052;2022-12-18T17:52:13;32.27;;;17.83;;
14272;SDS011;7220;49.450;11.052;2022-12-18T17:56:13;32.60;;;18.33;;
14272;SDS011;7220;49.450;11.052;2022-12-18T18:00:16;31.77;;;18.27;;
14272;SDS011;7220;49.450;11.052;2022-12-18T18:04:17;33.07;;;19.47;;
14272;SDS011;7220;49.450;11.052;2022-12-18T18:08:18;37.90;;;20.00;;
14272;SDS011;7220;49.450;11.052;2022-12-18T18:12:18;32.90;;;19.53;;
14272;SDS011;7220;49.450;11.052;2022-12-18T18:16:38;33.40;;;18.77;;
14272;SDS011;7220;49.450;11.052;2022-12-18T18:20:43;34.17;;;19.00;;
14272;SDS011;7220;49.450;11.052;2022-12-18T18:24:43;33.67;;;18.67;;
14272;SDS011;7220;49.450;11.052;2022-12-18T18:28:44;34.70;;;19.70;;
14272;SDS011;7220;49.450;11.052;2022-12-18T18:32:44;29.90;;;18.67;;
14272;SDS011;7220;49.450;11.052;2022-12-18T18:36:44;33.97;;;20.37;;
14272;SDS011;7220;49.450;11.052;2022-12-18T18:40:45;34.27;;;18.87;;
14272;SDS011;7220;49.450;11.052;2022-12-18T18:44:45;34.77;;;21.37;;
14272;SDS011;7220;49.450;11.052;2022-12-18T18:48:45;36.47;;;20.10;;
14272;SDS011;7220;49.450;11.052;2022-12-18T18:52:46;36.10;;;22.37;;
14272;SDS011;7220;49.450;11.052;2022-12-18T18:56:49;38.10;;;21.27;;
14272;SDS011;7220;49.450;11.052;2022-12-18T19:00:53;26.27;;;16.97;;
14272;SDS011;7220;49.450;11.052;2022-12-18T19:04:54;33.30;;;19.87;;
14272;SDS011;7220;49.450;11.052;2022-12-18T19:08:56;30.83;;;18.70;;
14272;SDS011;7220;49.450;11.052;2022-12-18T19:12:56;30.33;;;18.27;;
14272;SDS011;7220;49.450;11.052;2022-12-18T19:17:15;33.00;;;18.67;;
14272;SDS011;7220;49.450;11.052;2022-12-18T19:21:15;29.47;;;18.00;;
14272;SDS011;7220;49.450;11.052;2022-12-18T19:25:16;33.53;;;18.40;;
14272;SDS011;7220;49.450;11.052;2022-12-18T19:29:17;30.93;;;17.70;;
14272;SDS011;7220;49.450;11.052;2022-12-18T19:33:17;30.10;;;19.20;;
14272;SDS011;7220;49.450;11.052;2022-12-18T19:37:17;31.97;;;19.00;;
14272;SDS011;7220;49.450;11.052;2022-12-18T19:41:18;33.10;;;18.77;;
14272;SDS011;7220;49.450;11.052;2022-12-18T19:45:19;29.77;;;18.60;;
14272;SDS011;7220;49.450;11.052;2022-12-18T19:49:22;32.30;;;18.10;;
14272;SDS011;7220;49.450;11.052;2022-12-18T19:53:23;28.83;;;17.70;;
14272;SDS011;7220;49.450;11.052;2022-12-18T19:57:23;32.77;;;18.00;;
14272;SDS011;7220;49.450;11.052;2022-12-18T20:01:24;27.37;;;17.10;;
14272;SDS011;7220;49.450;11.052;2022-12-18T20:05:25;28.57;;;17.80;;
14272;SDS011;7220;49.450;11.052;2022-12-18T20:09:25;29.10;;;17.17;;
14272;SDS011;7220;49.450;11.052;2022-12-18T20:13:25;26.13;;;17.57;;
14272;SDS011;7220;49.450;11.052;2022-12-18T20:17:26;28.87;;;17.70;;
14272;SDS011;7220;49.450;11.052;2022-12-18T20:21:26;29.53;;;17.63;;
14272;SDS011;7220;49.450;11.052;2022-12-18T20:25:26;34.97;;;19.87;;
14272;SDS011;7220;49.450;11.052;2022-12-18T20:29:27;26.83;;;18.07;;
14272;SDS011;7220;49.450;11.052;2022-12-18T20:33:27;27.73;;;17.37;;
14272;SDS011;7220;49.450;11.052;2022-12-18T20:37:28;28.53;;;18.27;;
14272;SDS011;7220;49.450;11.052;2022-12-18T20:41:28;29.07;;;17.10;;
14272;SDS011;7220;49.450;11.052;2022-12-18T20:45:29;29.27;;;18.17;;
14272;SDS011;7220;49.450;11.052;2022-12-18T20:49:29;29.33;;;18.17;;
14272;SDS011;7220;49.450;11.052;2022-12-18T20:53:30;29.57;;;17.80;;
14272;SDS011;7220;49.450;11.052;2022-12-18T20:57:31;24.87;;;16.53;;
14272;SDS011;7220;49.450;11.052;2022-12-18T21:01:31;26.57;;;16.80;;
14272;SDS011;7220;49.450;11.052;2022-12-18T21:05:32;27.17;;;16.53;;
14272;SDS011;7220;49.450;11.052;2022-12-18T21:09:32;34.27;;;18.20;;
14272;SDS011;7220;49.450;11.052;2022-12-18T21:13:33;30.13;;;18.40;;
14272;SDS011;7220;49.450;11.052;2022-12-18T21:17:33;24.73;;;16.63;;
14272;SDS011;7220;49.450;11.052;2022-12-18T21:21:34;24.10;;;16.03;;
14272;SDS011;7220;49.450;11.052;2022-12-18T21:25:35;24.50;;;16.23;;
14272;SDS011;7220;49.450;11.052;2022-12-18T21:29:35;24.90;;;17.23;;
14272;SDS011;7220;49.450;11.052;2022-12-18T21:33:36;26.10;;;16.70;;
14272;SDS011;7220;49.450;11.052;2022-12-18T21:37:37;26.40;;;17.03;;
14272;SDS011;7220;49.450;11.052;2022-12-18T21:41:37;22.50;;;16.00;;
14272;SDS011;7220;49.450;11.052;2022-12-18T21:45:56;25.43;;;15.53;;
14272;SDS011;7220;49.450;11.052;2022-12-18T21:49:56;23.60;;;15.77;;
14272;SDS011;7220;49.450;11.052;2022-12-18T21:53:57;24.03;;;15.80;;
14272;SDS011;7220;49.450;11.052;2022-12-18T21:57:57;23.87;;;15.77;;
14272;SDS011;7220;49.450;11.052;2022-12-18T22:01:58;25.53;;;16.43;;
14272;SDS011;7220;49.450;11.052;2022-12-18T22:06:00;25.30;;;16.97;;
14272;SDS011;7220;49.450;11.052;2022-12-18T22:10:00;28.33;;;17.83;;
14272;SDS011;7220;49.450;11.052;2022-12-18T22:14:01;28.67;;;16.57;;
14272;SDS011;7220;49.450;11.052;2022-12-18T22:18:01;26.03;;;16.83;;
14272;SDS011;7220;49.450;11.052;2022-12-18T22:22:01;26.47;;;15.73;;
14272;SDS011;7220;49.450;11.052;2022-12-18T22:26:02;24.53;;;15.67;;
14272;SDS011;7220;49.450;11.052;2022-12-18T22:30:02;24.97;;;16.30;;
14272;SDS011;7220;49.450;11.052;2022-12-18T22:34:04;25.50;;;15.80;;
14272;SDS011;7220;49.450;11.052;2022-12-18T22:38:05;28.23;;;17.70;;
14272;SDS011;7220;49.450;11.052;2022-12-18T22:42:05;27.57;;;17.00;;
14272;SDS011;7220;49.450;11.052;2022-12-18T22:46:07;28.07;;;17.47;;
14272;SDS011;7220;49.450;11.052;2022-12-18T22:50:14;26.83;;;17.23;;
14272;SDS011;7220;49.450;11.052;2022-12-18T22:54:14;25.13;;;15.97;;
14272;SDS011;7220;49.450;11.052;2022-12-18T22:58:15;25.37;;;15.77;;
14272;SDS011;7220;49.450;11.052;2022-12-18T23:02:15;26.80;;;16.97;;
14272;SDS011;7220;49.450;11.052;2022-12-18T23:06:17;26.63;;;16.57;;
14272;SDS011;7220;49.450;11.052;2022-12-18T23:10:18;28.83;;;17.07;;
14272;SDS011;7220;49.450;11.052;2022-12-18T23:14:18;26.60;;;17.13;;
14272;SDS011;7220;49.450;11.052;2022-12-18T23:18:19;29.10;;;16.93;;
14272;SDS011;7220;49.450;11.052;2022-12-18T23:22:19;24.53;;;17.13;;
14272;SDS011;7220;49.450;11.052;2022-12-18T23:26:21;25.43;;;16.63;;
14272;SDS011;7220;49.450;11.052;2022-12-18T23:30:23;28.20;;;17.73;;
14272;SDS011;7220;49.450;11.052;2022-12-18T23:34:23;29.03;;;18.33;;
14272;SDS011;7220;49.450;11.052;2022-12-18T23:38:23;26.90;;;17.10;;
14272;SDS011;7220;49.450;11.052;2022-12-18T23:42:26;29.47;;;17.90;;
14272;SDS011;7220;49.450;11.052;2022-12-18T23:46:28;30.27;;;18.63;;
14272;SDS011;7220;49.450;11.052;2022-12-18T23:50:29;25.03;;;16.97;;
14272;SDS011;7220;49.450;11.052;2022-12-18T23:54:30;27.63;;;18.17;;
14272;SDS011;7220;49.450;11.052;2022-12-18T23:58:30;25.33;;;17.20;;
